Time;durP1;ratioP1;P1;durP2;ratioP2;P2;SDS_P1;SDS_P2;PMS_P1;PMS_P2;Temp;Humidity;BMP_temperature;BMP_pressure;BME280_temperature;BME280_humidity;BME280_pressure;Samples;Min_cycle;Max_cycle;Signal;HPM_P1;HPM_P2
2023/03/18 00:04:59;;;;;;;5.18;2.90;;;12.20;97.60;;;;;;10433171;28;20025;-63
2023/03/18 00:10:00;;;;;;;4.00;2.78;;;12.20;97.60;;;;;;10433818;28;20082;-64
2023/03/18 00:15:01;;;;;;;6.07;2.80;;;12.20;97.60;;;;;;10436886;28;20117;-65
2023/03/18 00:20:08;;;;;;;4.72;2.97;;;12.20;97.60;;;;;;10435781;28;20056;-64
2023/03/18 00:25:11;;;;;;;4.72;2.88;;;12.20;97.70;;;;;;10431437;28;20025;-64
2023/03/18 00:30:12;;;;;;;6.35;3.17;;;12.20;97.70;;;;;;10421999;28;20059;-63
2023/03/18 00:35:13;;;;;;;4.95;3.20;;;12.20;97.70;;;;;;10436613;28;20599;-63
2023/03/18 00:40:19;;;;;;;5.70;3.00;;;12.20;97.70;;;;;;10431401;28;20032;-65
2023/03/18 00:45:19;;;;;;;5.50;3.20;;;12.20;97.70;;;;;;10436383;28;20021;-63
2023/03/18 00:50:20;;;;;;;6.32;3.17;;;12.10;97.70;;;;;;10436335;28;20033;-64
2023/03/18 00:55:21;;;;;;;4.85;2.90;;;12.10;97.70;;;;;;10435521;28;20025;-64
2023/03/18 01:00:22;;;;;;;4.85;3.00;;;12.10;97.70;;;;;;10434590;28;20025;-64
2023/03/18 01:05:23;;;;;;;4.35;2.70;;;12.10;97.80;;;;;;10439679;28;20424;-63
2023/03/18 01:10:24;;;;;;;4.00;2.90;;;12.10;97.80;;;;;;10436871;28;20097;-64
2023/03/18 01:15:25;;;;;;;3.80;2.55;;;12.10;97.80;;;;;;10439380;28;20021;-64
2023/03/18 01:20:25;;;;;;;3.60;2.40;;;12.10;97.80;;;;;;10440129;28;20433;-64
2023/03/18 01:25:27;;;;;;;4.32;2.88;;;12.00;97.80;;;;;;10435138;28;20026;-64
2023/03/18 01:30:28;;;;;;;5.07;2.72;;;12.10;97.80;;;;;;10437617;28;20025;-64
2023/03/18 01:35:30;;;;;;;5.90;3.13;;;12.00;97.80;;;;;;10436252;28;20027;-64
2023/03/18 01:40:33;;;;;;;4.13;2.67;;;12.00;97.80;;;;;;10441873;28;20107;-65
2023/03/18 01:45:34;;;;;;;4.68;3.00;;;12.00;97.90;;;;;;10439819;28;20017;-64
2023/03/18 01:50:36;;;;;;;6.60;2.97;;;12.00;97.90;;;;;;10439455;28;20096;-64
2023/03/18 01:55:38;;;;;;;5.20;2.80;;;12.00;97.90;;;;;;10423926;28;20060;-64
2023/03/18 02:00:44;;;;;;;4.47;3.13;;;12.00;97.90;;;;;;10430059;28;20514;-64
2023/03/18 02:05:48;;;;;;;4.13;2.70;;;11.90;97.90;;;;;;10433648;28;20024;-64
2023/03/18 02:10:49;;;;;;;4.85;3.22;;;11.90;97.90;;;;;;10436582;28;20048;-64
2023/03/18 02:15:55;;;;;;;4.20;3.17;;;11.90;97.90;;;;;;10435818;28;20048;-64
2023/03/18 02:21:30;;;;;;;4.47;2.80;;;11.90;98.00;;;;;;10426512;28;20021;-64
2023/03/18 02:26:48;;;;;;;7.70;3.30;;;11.90;98.00;;;;;;10432666;28;20037;-64
2023/03/18 02:31:49;;;;;;;;;;;11.90;98.00;;;;;;10434632;28;20017;-63
2023/03/18 02:36:50;;;;;;;4.47;3.20;;;11.80;98.00;;;;;;10433196;28;19908;-64
2023/03/18 02:41:52;;;;;;;5.53;3.20;;;11.80;97.90;;;;;;10434791;28;20067;-65
2023/03/18 02:47:01;;;;;;;4.20;3.30;;;11.80;98.00;;;;;;10431978;28;20649;-63
2023/03/18 02:52:03;;;;;;;4.07;2.70;;;11.80;98.00;;;;;;10428530;28;20292;-64
2023/03/18 02:57:03;;;;;;;4.80;3.38;;;11.80;98.00;;;;;;10435461;28;20044;-63
2023/03/18 03:02:05;;;;;;;4.88;2.95;;;11.80;98.00;;;;;;10428420;28;20027;-64
2023/03/18 03:07:06;;;;;;;5.13;3.25;;;11.80;98.00;;;;;;10436346;28;20170;-63
2023/03/18 03:12:08;;;;;;;4.68;3.30;;;11.80;98.00;;;;;;10431424;28;20033;-62
2023/03/18 03:17:09;;;;;;;4.60;3.20;;;11.70;98.30;;;;;;10421045;28;20029;-61
2023/03/18 03:22:10;;;;;;;4.70;3.08;;;11.70;98.00;;;;;;10430351;28;20108;-64
2023/03/18 03:27:11;;;;;;;4.97;2.78;;;11.20;97.90;;;;;;10428182;28;20079;-64
2023/03/18 03:32:12;;;;;;;6.65;3.63;;;11.70;98.00;;;;;;10427193;28;20543;-65
2023/03/18 03:37:13;;;;;;;5.32;3.30;;;11.70;98.00;;;;;;10418693;28;20446;-63
2023/03/18 03:42:13;;;;;;;5.82;3.75;;;11.70;98.00;;;;;;10433988;28;20025;-64
2023/03/18 03:47:14;;;;;;;5.40;3.33;;;11.70;98.00;;;;;;10426586;28;20021;-64
2023/03/18 03:52:17;;;;;;;5.68;3.33;;;11.70;98.00;;;;;;10427918;28;20044;-64
2023/03/18 03:57:18;;;;;;;5.40;3.42;;;11.70;98.00;;;;;;10428081;28;20013;-65
2023/03/18 04:02:20;;;;;;;5.45;3.67;;;11.70;98.00;;;;;;10420218;28;20029;-64
2023/03/18 04:07:20;;;;;;;6.20;3.40;;;11.60;98.00;;;;;;10426373;28;20025;-63
2023/03/18 04:12:21;;;;;;;5.97;3.38;;;11.70;98.00;;;;;;10432323;28;20025;-63
2023/03/18 04:17:22;;;;;;;4.90;3.35;;;11.70;98.00;;;;;;10433953;28;20447;-64
2023/03/18 04:22:22;;;;;;;7.57;4.20;;;11.70;98.10;;;;;;10438172;28;20405;-64
2023/03/18 04:27:24;;;;;;;8.85;4.50;;;11.60;98.00;;;;;;10433830;28;20552;-64
2023/03/18 04:32:24;;;;;;;5.65;4.07;;;11.60;98.10;;;;;;10440110;28;20009;-64
2023/03/18 04:37:25;;;;;;;6.28;3.92;;;11.60;98.10;;;;;;10434428;28;20436;-65
2023/03/18 04:42:26;;;;;;;7.35;3.88;;;11.60;98.10;;;;;;10435482;28;20650;-65
2023/03/18 04:47:27;;;;;;;6.25;4.00;;;11.60;98.10;;;;;;10434940;28;20436;-64
2023/03/18 04:52:27;;;;;;;5.45;3.70;;;11.60;98.10;;;;;;10432250;28;20013;-65
2023/03/18 04:57:28;;;;;;;5.43;3.55;;;11.60;98.10;;;;;;10430125;28;20016;-63
2023/03/18 05:02:29;;;;;;;5.22;3.42;;;11.60;98.10;;;;;;10437783;28;20017;-64
2023/03/18 05:07:30;;;;;;;6.35;3.97;;;11.50;98.10;;;;;;10428055;28;20943;-64
2023/03/18 05:12:31;;;;;;;5.22;4.00;;;11.50;98.10;;;;;;10438183;28;20024;-63
2023/03/18 05:17:32;;;;;;;8.05;4.40;;;11.50;98.10;;;;;;10434151;28;20021;-64
2023/03/18 05:22:33;;;;;;;6.60;3.95;;;11.50;98.10;;;;;;10433407;28;20489;-64
2023/03/18 05:27:34;;;;;;;6.13;3.95;;;11.50;98.10;;;;;;10436904;28;20045;-63
2023/03/18 05:32:35;;;;;;;6.55;4.10;;;11.50;98.30;;;;;;10431724;28;20039;-64
2023/03/18 05:37:36;;;;;;;5.47;3.88;;;11.50;98.10;;;;;;10430879;28;20048;-64
2023/03/18 05:42:39;;;;;;;6.78;3.63;;;11.50;98.10;;;;;;10433463;28;20072;-64
2023/03/18 05:47:40;;;;;;;8.45;4.05;;;11.50;98.10;;;;;;10432952;28;20079;-64
2023/03/18 05:52:41;;;;;;;6.60;3.92;;;11.40;98.10;;;;;;10437911;28;20025;-64
2023/03/18 05:57:42;;;;;;;5.80;4.07;;;11.50;98.10;;;;;;10434699;28;20021;-63
2023/03/18 06:02:43;;;;;;;6.13;4.00;;;11.50;98.10;;;;;;10430865;28;20485;-64
2023/03/18 06:07:44;;;;;;;6.35;3.47;;;11.50;98.10;;;;;;10433738;28;20059;-64
2023/03/18 06:12:45;;;;;;;5.65;3.47;;;11.40;98.10;;;;;;10429836;28;20116;-63
2023/03/18 06:17:46;;;;;;;5.43;3.50;;;11.50;98.10;;;;;;10431041;28;20404;-65
2023/03/18 06:22:48;;;;;;;5.32;3.83;;;11.40;98.10;;;;;;10430191;28;20025;-64
2023/03/18 06:27:49;;;;;;;5.97;3.58;;;11.40;98.10;;;;;;10427329;28;20037;-64
2023/03/18 06:32:52;;;;;;;5.53;3.50;;;11.40;98.10;;;;;;10436348;28;20499;-64
2023/03/18 06:37:53;;;;;;;5.05;3.65;;;11.40;98.10;;;;;;10433870;28;20022;-64
2023/03/18 06:42:53;;;;;;;6.30;3.55;;;11.40;98.10;;;;;;10438621;28;20619;-63
2023/03/18 06:47:54;;;;;;;5.45;3.58;;;11.40;98.10;;;;;;10424636;28;20037;-64
2023/03/18 06:52:55;;;;;;;5.60;3.72;;;11.40;98.10;;;;;;10426029;28;20049;-64
2023/03/18 06:57:56;;;;;;;7.13;3.92;;;11.40;98.10;;;;;;10436886;28;20029;-64
2023/03/18 07:02:57;;;;;;;5.70;3.72;;;11.40;98.10;;;;;;10413660;28;20459;-63
2023/03/18 07:08:00;;;;;;;6.47;3.53;;;11.40;98.10;;;;;;10428874;28;20020;-64
2023/03/18 07:13:01;;;;;;;5.63;3.35;;;11.40;98.10;;;;;;10421020;28;20055;-64
2023/03/18 07:18:03;;;;;;;6.75;3.95;;;11.40;98.10;;;;;;10432204;28;20018;-63
2023/03/18 07:23:05;;;;;;;6.80;3.58;;;11.40;98.40;;;;;;10425522;28;20433;-62
2023/03/18 07:28:05;;;;;;;5.80;3.67;;;11.40;98.10;;;;;;10432354;28;20029;-64
2023/03/18 07:33:06;;;;;;;4.82;3.50;;;11.40;98.10;;;;;;10433275;28;20011;-64
2023/03/18 07:38:08;;;;;;;5.38;3.47;;;11.40;98.10;;;;;;10434372;28;20037;-63
2023/03/18 07:43:08;;;;;;;5.15;3.67;;;11.40;98.10;;;;;;10425165;28;20027;-63
2023/03/18 07:48:09;;;;;;;6.05;3.05;;;11.40;98.10;;;;;;10427623;28;20393;-63
2023/03/18 07:53:11;;;;;;;5.88;3.55;;;11.40;98.00;;;;;;10427964;28;20036;-64
2023/03/18 07:58:12;;;;;;;4.00;3.60;;;11.50;98.00;;;;;;10431101;28;20469;-64
2023/03/18 08:03:13;;;;;;;4.80;3.60;;;11.60;98.00;;;;;;10425747;28;20033;-63
2023/03/18 08:08:14;;;;;;;6.95;3.60;;;11.60;98.00;;;;;;10425599;28;20033;-64
2023/03/18 08:13:15;;;;;;;4.57;3.33;;;11.60;98.00;;;;;;10425903;28;20504;-63
2023/03/18 08:18:15;;;;;;;6.78;3.80;;;11.60;98.20;;;;;;10425663;28;20045;-63
2023/03/18 08:23:16;;;;;;;6.75;3.85;;;11.60;98.00;;;;;;10428716;28;20036;-64
2023/03/18 08:28:17;;;;;;;4.85;3.35;;;11.60;98.00;;;;;;10431244;28;20040;-64
2023/03/18 08:33:19;;;;;;;7.15;4.13;;;11.70;97.90;;;;;;10423821;28;20167;-64
2023/03/18 08:38:20;;;;;;;6.75;4.18;;;11.70;97.90;;;;;;10428042;28;20060;-63
2023/03/18 08:43:21;;;;;;;7.20;4.53;;;11.80;97.90;;;;;;10427745;28;20037;-64
2023/03/18 08:48:23;;;;;;;7.47;4.70;;;11.80;97.90;;;;;;10427144;28;20056;-63
2023/03/18 08:53:24;;;;;;;7.93;5.07;;;11.00;97.70;;;;;;10429946;28;20500;-64
2023/03/18 08:58:26;;;;;;;7.20;4.50;;;11.90;97.90;;;;;;10439209;28;20179;-63
2023/03/18 09:03:27;;;;;;;10.93;5.00;;;11.90;97.90;;;;;;10434687;28;20016;-64
2023/03/18 09:08:29;;;;;;;7.20;4.38;;;12.00;97.80;;;;;;10439200;28;20040;-64
2023/03/18 09:13:30;;;;;;;8.57;4.75;;;12.00;97.80;;;;;;10435032;28;20029;-69
2023/03/18 09:18:31;;;;;;;9.50;4.93;;;12.00;97.80;;;;;;10438168;28;20039;-65
2023/03/18 09:23:33;;;;;;;7.25;5.13;;;12.10;97.90;;;;;;10430712;28;20028;-64
2023/03/18 09:28:33;;;;;;;8.68;5.28;;;12.10;97.90;;;;;;10433446;28;20024;-63
2023/03/18 09:33:35;;;;;;;8.70;5.75;;;12.30;97.90;;;;;;10439049;28;20068;-63
2023/03/18 09:38:36;;;;;;;9.80;5.70;;;12.10;97.90;;;;;;10441218;28;20027;-63
2023/03/18 09:43:54;;;;;;;8.07;5.32;;;12.10;97.90;;;;;;10441021;28;20035;-63
2023/03/18 09:49:13;;;;;;;15.10;6.80;;;12.20;98.00;;;;;;10435096;28;20099;-63
2023/03/18 09:54:52;;;;;;;12.45;5.97;;;12.10;98.00;;;;;;10431905;28;20029;-64
2023/03/18 10:00:27;;;;;;;9.07;5.38;;;12.20;98.00;;;;;;10410065;28;20630;-64
2023/03/18 10:05:40;;;;;;;13.57;5.68;;;12.20;98.00;;;;;;10419050;28;20040;-65
2023/03/18 10:10:45;;;;;;;16.38;9.35;;;12.30;98.00;;;;;;10431307;28;20108;-67
2023/03/18 10:15:53;;;;;;;9.77;5.85;;;12.50;98.40;;;;;;10439405;28;20028;-64
2023/03/18 10:21:03;;;;;;;10.23;5.95;;;12.60;98.40;;;;;;10432453;28;20033;-64
2023/03/18 10:26:12;;;;;;;10.18;5.60;;;12.60;98.10;;;;;;10429003;28;20033;-64
2023/03/18 10:31:17;;;;;;;9.18;5.82;;;12.70;98.20;;;;;;10434209;28;20024;-64
2023/03/18 10:36:24;;;;;;;9.60;5.85;;;12.70;98.10;;;;;;10437030;28;20483;-63
2023/03/18 10:41:29;;;;;;;11.57;6.63;;;12.70;98.10;;;;;;10427843;28;20378;-64
2023/03/18 10:46:32;;;;;;;11.60;6.25;;;12.80;98.10;;;;;;10439549;28;20037;-63
2023/03/18 10:51:46;;;;;;;10.80;6.30;;;12.80;98.10;;;;;;10434543;28;20579;-64
2023/03/18 10:56:47;;;;;;;9.13;5.57;;;13.00;98.90;;;;;;10435956;28;20031;-64
2023/03/18 11:01:54;;;;;;;9.18;5.63;;;12.90;98.10;;;;;;10426001;28;20076;-63
2023/03/18 11:07:03;;;;;;;9.43;5.32;;;13.00;98.10;;;;;;10426944;28;20090;-65
2023/03/18 11:12:17;;;;;;;11.10;5.90;;;13.10;98.10;;;;;;10434273;28;20049;-65
2023/03/18 11:17:34;;;;;;;7.68;5.28;;;13.20;98.30;;;;;;10427407;28;20108;-66
2023/03/18 11:22:36;;;;;;;7.85;5.13;;;13.20;98.30;;;;;;10428302;28;20031;-66
2023/03/18 11:27:50;;;;;;;11.82;7.30;;;13.20;98.10;;;;;;10430212;28;20036;-67
2023/03/18 11:33:16;;;;;;;9.25;5.97;;;13.30;98.60;;;;;;10422357;28;20032;-66
2023/03/18 11:38:27;;;;;;;10.77;5.70;;;13.40;98.50;;;;;;10425085;28;20448;-66
2023/03/18 11:43:28;;;;;;;14.13;7.82;;;13.40;98.20;;;;;;10427263;28;20028;-67
2023/03/18 11:48:38;;;;;;;14.70;8.68;;;13.70;98.40;;;;;;10431077;28;20025;-66
2023/03/18 11:54:04;;;;;;;15.55;8.13;;;13.90;98.40;;;;;;10432271;28;20029;-67
2023/03/18 11:59:42;;;;;;;11.05;7.03;;;14.10;98.60;;;;;;10428944;28;20032;-65
2023/03/18 12:04:52;;;;;;;13.48;8.23;;;14.20;98.70;;;;;;10431354;28;20029;-66
2023/03/18 12:10:19;;;;;;;12.88;8.05;;;14.40;98.10;;;;;;10432323;28;20035;-67
2023/03/18 12:15:35;;;;;;;16.30;8.30;;;14.50;98.20;;;;;;10425940;28;20036;-65
2023/03/18 12:20:48;;;;;;;19.48;9.00;;;14.60;97.90;;;;;;10429558;28;20102;-65
2023/03/18 12:26:05;;;;;;;16.48;9.30;;;14.70;98.00;;;;;;10427771;28;20027;-65
2023/03/18 12:31:18;;;;;;;14.32;8.20;;;14.60;98.30;;;;;;10431913;28;20017;-65
2023/03/18 12:36:30;;;;;;;14.73;7.82;;;14.60;98.30;;;;;;10433473;28;20083;-65
2023/03/18 12:42:08;;;;;;;16.80;7.53;;;14.60;98.40;;;;;;10442985;28;20032;-63
2023/03/18 12:47:21;;;;;;;12.38;7.80;;;14.70;98.60;;;;;;10437254;28;20086;-63
2023/03/18 12:52:34;;;;;;;13.40;7.18;;;14.60;98.40;;;;;;10434460;28;20025;-64
2023/03/18 12:57:38;;;;;;;12.27;7.05;;;14.60;98.50;;;;;;10438295;28;20525;-63
2023/03/18 13:02:51;;;;;;;11.30;6.72;;;14.60;98.60;;;;;;10435037;28;20404;-63
2023/03/18 13:08:20;;;;;;;10.65;6.05;;;14.60;98.60;;;;;;10440445;28;20460;-64
2023/03/18 13:13:22;;;;;;;11.60;5.93;;;14.60;98.60;;;;;;10436294;28;20013;-64
2023/03/18 13:18:30;;;;;;;10.13;5.78;;;14.60;98.60;;;;;;10438601;28;20028;-63
2023/03/18 13:24:15;;;;;;;10.30;5.37;;;14.60;98.60;;;;;;10440495;28;20238;-64
2023/03/18 13:29:42;;;;;;;10.93;5.90;;;14.60;98.70;;;;;;10387884;28;20037;-63
2023/03/18 13:35:21;;;;;;;9.98;6.00;;;14.60;98.60;;;;;;10438053;28;20037;-63
2023/03/18 13:40:37;;;;;;;10.20;5.40;;;14.60;98.80;;;;;;10435499;28;20021;-63
2023/03/18 13:45:46;;;;;;;12.70;5.80;;;14.60;98.80;;;;;;10425871;28;20072;-64
2023/03/18 13:50:50;;;;;;;7.75;4.97;;;14.60;98.90;;;;;;10439744;28;20029;-64
2023/03/18 13:55:53;;;;;;;8.13;4.78;;;14.50;98.90;;;;;;10436407;28;20432;-63
2023/03/18 14:00:54;;;;;;;8.48;4.63;;;14.50;98.90;;;;;;10437181;28;20112;-63
2023/03/18 14:06:07;;;;;;;9.15;4.78;;;14.50;99.00;;;;;;10439667;28;20649;-64
2023/03/18 14:11:18;;;;;;;7.05;4.47;;;14.50;99.10;;;;;;10433253;28;20013;-64
2023/03/18 14:16:29;;;;;;;8.65;4.85;;;14.50;99.10;;;;;;10435471;28;20029;-63
2023/03/18 14:21:32;;;;;;;7.65;4.68;;;14.40;99.10;;;;;;10437517;28;20021;-63
2023/03/18 14:26:33;;;;;;;8.65;4.03;;;14.40;99.20;;;;;;10433281;28;20025;-63
2023/03/18 14:31:55;;;;;;;7.13;4.40;;;14.20;99.50;;;;;;10434372;28;20025;-63
2023/03/18 14:36:55;;;;;;;5.22;3.85;;;14.20;99.30;;;;;;10426834;28;21397;-63
2023/03/18 14:42:00;;;;;;;6.22;4.15;;;14.20;99.30;;;;;;10430814;28;20505;-66
2023/03/18 14:47:15;;;;;;;7.07;3.70;;;14.20;99.40;;;;;;10425373;28;20513;-63
2023/03/18 14:52:35;;;;;;;6.45;4.28;;;14.20;99.40;;;;;;10430043;28;20025;-63
2023/03/18 14:57:36;;;;;;;6.57;4.20;;;14.10;99.40;;;;;;10429895;28;20031;-64
2023/03/18 15:02:38;;;;;;;5.97;3.25;;;14.20;99.50;;;;;;10438371;28;20095;-63
2023/03/18 15:07:40;;;;;;;5.63;3.92;;;14.10;99.50;;;;;;10430570;28;20469;-64
2023/03/18 15:12:40;;;;;;;5.60;3.90;;;14.10;99.50;;;;;;10432609;28;20056;-64
2023/03/18 15:17:47;;;;;;;4.72;3.30;;;14.00;99.50;;;;;;10420750;28;20480;-66
2023/03/18 15:22:48;;;;;;;5.70;3.30;;;14.00;99.60;;;;;;10431948;28;20490;-64
2023/03/18 15:27:49;;;;;;;6.80;3.47;;;14.00;99.60;;;;;;10433125;28;20527;-68
2023/03/18 15:32:55;;;;;;;6.47;3.45;;;13.90;99.70;;;;;;10433060;28;20028;-63
2023/03/18 15:38:14;;;;;;;6.43;3.65;;;13.90;99.70;;;;;;10429954;28;20025;-64
2023/03/18 15:43:25;;;;;;;5.07;3.15;;;14.00;99.70;;;;;;10431660;28;20021;-64
2023/03/18 15:48:39;;;;;;;4.00;2.83;;;14.00;99.70;;;;;;10437114;28;20037;-64
2023/03/18 15:53:46;;;;;;;4.82;2.80;;;14.00;99.60;;;;;;10433885;28;20104;-63
2023/03/18 15:58:56;;;;;;;3.90;2.40;;;14.10;99.60;;;;;;10435529;28;20432;-64
2023/03/18 16:03:57;;;;;;;5.00;2.70;;;14.00;99.50;;;;;;10436910;28;20406;-64
2023/03/18 16:08:58;;;;;;;5.10;2.13;;;14.10;99.50;;;;;;10441128;28;20037;-64
2023/03/18 16:13:59;;;;;;;5.13;2.80;;;14.00;99.50;;;;;;10439148;28;20500;-64
2023/03/18 16:19:00;;;;;;;4.13;2.45;;;14.10;99.50;;;;;;10438342;28;20018;-63
2023/03/18 16:24:01;;;;;;;4.75;2.58;;;14.00;99.50;;;;;;10438798;28;20029;-63
2023/03/18 16:29:02;;;;;;;3.65;2.00;;;14.00;99.50;;;;;;10439482;28;20018;-64
2023/03/18 16:34:08;;;;;;;2.80;1.92;;;14.00;99.50;;;;;;10440334;28;20018;-63
2023/03/18 16:39:16;;;;;;;4.38;2.20;;;14.00;99.60;;;;;;10439363;28;20025;-63
2023/03/18 16:44:20;;;;;;;3.30;1.90;;;13.90;99.60;;;;;;10442126;28;20461;-64
2023/03/18 16:49:23;;;;;;;2.65;1.92;;;13.90;99.60;;;;;;10439793;28;20018;-64
2023/03/18 16:54:31;;;;;;;2.72;1.58;;;13.90;99.60;;;;;;10438967;28;20476;-64
2023/03/18 16:59:37;;;;;;;3.78;1.80;;;13.90;99.60;;;;;;10442794;28;20019;-64
2023/03/18 17:04:37;;;;;;;4.00;2.03;;;13.90;99.70;;;;;;10432704;28;20396;-64
2023/03/18 17:09:38;;;;;;;3.22;1.88;;;13.90;99.70;;;;;;10438148;28;20029;-64
2023/03/18 17:14:43;;;;;;;2.75;1.75;;;13.80;99.70;;;;;;10431368;28;20060;-64
2023/03/18 17:19:44;;;;;;;4.68;2.20;;;13.80;99.80;;;;;;10437664;28;20039;-64
2023/03/18 17:24:44;;;;;;;5.45;2.13;;;13.80;99.80;;;;;;10439441;28;20298;-64
2023/03/18 17:29:45;;;;;;;2.72;1.77;;;13.80;99.90;;;;;;10434329;28;20029;-64
2023/03/18 17:34:51;;;;;;;2.28;1.83;;;13.70;99.90;;;;;;10441167;28;20063;-64
2023/03/18 17:39:51;;;;;;;1.92;1.58;;;13.70;99.90;;;;;;10436241;28;20028;-64
2023/03/18 17:44:52;;;;;;;3.05;1.77;;;13.70;99.90;;;;;;10440461;28;20043;-64
2023/03/18 17:49:53;;;;;;;1.60;1.50;;;13.60;99.90;;;;;;10438153;28;20017;-63
2023/03/18 17:54:54;;;;;;;2.38;1.58;;;13.60;99.90;;;;;;10440024;28;20398;-64
2023/03/18 17:59:56;;;;;;;3.90;1.70;;;13.60;99.90;;;;;;10434343;28;20025;-64
2023/03/18 18:04:56;;;;;;;2.75;1.70;;;13.50;99.90;;;;;;10436785;28;20082;-64
2023/03/18 18:09:59;;;;;;;3.38;1.90;;;13.50;99.90;;;;;;10430791;28;20359;-65
2023/03/18 18:15:00;;;;;;;15.73;3.22;;;13.50;99.90;;;;;;10431806;28;21155;-65
2023/03/18 18:20:02;;;;;;;5.93;2.60;;;13.30;99.90;;;;;;10433350;28;20022;-64
2023/03/18 18:25:15;;;;;;;3.28;2.38;;;13.30;99.90;;;;;;10432227;28;20043;-65
2023/03/18 18:30:24;;;;;;;4.47;2.58;;;13.30;99.90;;;;;;10429718;28;20519;-64
2023/03/18 18:35:25;;;;;;;5.97;2.38;;;13.20;99.90;;;;;;10424292;28;20024;-65
2023/03/18 18:40:25;;;;;;;3.58;2.30;;;13.30;99.90;;;;;;10429838;28;20017;-64
2023/03/18 18:45:27;;;;;;;5.43;2.38;;;13.20;99.90;;;;;;10431449;28;20099;-64
2023/03/18 18:50:34;;;;;;;4.47;2.22;;;13.20;99.90;;;;;;10427780;28;20025;-63
2023/03/18 18:55:34;;;;;;;6.28;3.40;;;13.20;99.90;;;;;;10434264;28;20044;-63
2023/03/18 19:00:35;;;;;;;3.97;2.35;;;13.20;99.90;;;;;;10422210;28;20048;-64
2023/03/18 19:05:36;;;;;;;4.45;2.40;;;13.20;99.90;;;;;;10428929;28;20028;-64
2023/03/18 19:10:37;;;;;;;4.63;2.05;;;13.10;99.90;;;;;;10433875;28;20033;-65
2023/03/18 19:15:38;;;;;;;4.90;1.98;;;13.20;99.90;;;;;;10427288;28;20039;-64
2023/03/18 19:20:39;;;;;;;4.00;2.15;;;13.10;99.90;;;;;;10425586;28;20033;-64
2023/03/18 19:25:40;;;;;;;3.70;2.25;;;13.10;99.90;;;;;;10421383;28;20063;-64
2023/03/18 19:30:41;;;;;;;4.47;2.20;;;13.00;99.90;;;;;;10430734;28;20573;-64
2023/03/18 19:35:43;;;;;;;3.25;2.08;;;13.00;99.90;;;;;;10428652;28;20493;-64
2023/03/18 19:40:43;;;;;;;4.65;2.00;;;13.00;99.90;;;;;;10428343;28;20352;-64
2023/03/18 19:45:46;;;;;;;4.60;2.35;;;13.00;99.90;;;;;;10427214;28;20044;-63
2023/03/18 19:50:47;;;;;;;3.72;2.20;;;12.90;99.90;;;;;;10424267;28;20083;-64
2023/03/18 19:55:47;;;;;;;5.05;2.08;;;12.90;99.90;;;;;;10429999;28;20074;-64
2023/03/18 20:00:48;;;;;;;4.50;2.33;;;12.90;99.90;;;;;;10426501;28;20103;-63
2023/03/18 20:05:48;;;;;;;6.30;2.58;;;12.90;99.90;;;;;;10430517;28;20021;-64
2023/03/18 20:10:49;;;;;;;4.10;2.70;;;12.90;99.90;;;;;;10427757;28;20018;-64
2023/03/18 20:15:50;;;;;;;2.88;2.20;;;12.90;99.90;;;;;;10425531;28;20036;-64
2023/03/18 20:20:50;;;;;;;5.00;2.53;;;12.80;99.90;;;;;;10423305;28;20026;-64
2023/03/18 20:25:52;;;;;;;4.30;2.67;;;12.80;99.90;;;;;;10419959;28;20029;-64
2023/03/18 20:30:55;;;;;;;6.18;2.72;;;12.80;99.90;;;;;;10420121;28;20432;-65
2023/03/18 20:35:55;;;;;;;3.85;2.60;;;12.70;99.90;;;;;;10431475;28;20504;-64
2023/03/18 20:40:56;;;;;;;3.67;2.38;;;12.70;99.90;;;;;;10428275;28;20116;-63
2023/03/18 20:45:58;;;;;;;4.10;2.80;;;12.70;99.90;;;;;;10427653;28;20096;-63
2023/03/18 20:50:59;;;;;;;4.32;2.83;;;12.70;99.90;;;;;;10430005;28;20056;-64
2023/03/18 20:55:59;;;;;;;3.50;2.75;;;12.60;99.90;;;;;;10434420;28;20104;-63
2023/03/18 21:01:00;;;;;;;5.18;2.95;;;12.60;99.90;;;;;;10432035;28;20358;-63
2023/03/18 21:06:05;;;;;;;5.38;2.70;;;12.70;99.90;;;;;;10432231;28;20347;-64
2023/03/18 21:11:22;;;;;;;3.13;2.60;;;12.60;99.90;;;;;;10429587;28;20025;-64
2023/03/18 21:16:23;;;;;;;3.05;2.60;;;12.60;99.90;;;;;;10427460;28;20401;-65
2023/03/18 21:21:37;;;;;;;5.95;3.10;;;12.60;99.90;;;;;;10431670;28;20021;-63
2023/03/18 21:26:38;;;;;;;5.00;3.03;;;12.60;99.90;;;;;;10429583;28;20468;-64
2023/03/18 21:31:38;;;;;;;5.20;3.10;;;12.60;99.90;;;;;;10430345;28;20045;-64
2023/03/18 21:36:39;;;;;;;7.28;3.42;;;12.60;99.90;;;;;;10426253;28;20116;-64
2023/03/18 21:41:40;;;;;;;3.97;3.17;;;12.60;99.90;;;;;;10425885;28;20109;-63
2023/03/18 21:46:41;;;;;;;6.60;3.42;;;12.50;99.90;;;;;;10425513;28;20024;-64
2023/03/18 21:51:42;;;;;;;5.70;3.40;;;12.50;99.90;;;;;;10428696;28;20031;-63
2023/03/18 21:56:42;;;;;;;4.47;3.30;;;12.50;99.90;;;;;;10425178;28;20037;-65
2023/03/18 22:01:43;;;;;;;8.15;3.47;;;12.50;99.90;;;;;;10431984;28;20079;-65
2023/03/18 22:06:43;;;;;;;5.03;3.70;;;12.50;99.90;;;;;;10430737;28;20693;-64
2023/03/18 22:11:44;;;;;;;6.25;3.95;;;12.60;99.90;;;;;;10433290;28;20031;-63
2023/03/18 22:16:45;;;;;;;6.22;4.20;;;12.50;99.90;;;;;;10431269;28;20111;-64
2023/03/18 22:21:46;;;;;;;6.10;4.07;;;12.50;99.90;;;;;;10430628;28;20051;-62
2023/03/18 22:26:46;;;;;;;5.18;3.42;;;12.50;99.90;;;;;;10428323;28;20064;-66
2023/03/18 22:31:47;;;;;;;7.40;5.00;;;12.50;99.90;;;;;;10419547;28;20032;-64
2023/03/18 22:36:48;;;;;;;5.47;4.03;;;12.50;99.90;;;;;;10430208;28;20033;-63
2023/03/18 22:41:48;;;;;;;6.15;4.07;;;12.50;99.90;;;;;;10434585;28;20032;-63
2023/03/18 22:46:49;;;;;;;6.00;4.50;;;12.50;99.90;;;;;;10427506;28;20043;-64
2023/03/18 22:51:50;;;;;;;6.32;4.45;;;12.40;99.90;;;;;;10430382;28;20021;-64
2023/03/18 22:56:50;;;;;;;4.80;3.80;;;12.40;99.90;;;;;;10427793;28;20104;-64
2023/03/18 23:01:51;;;;;;;7.20;4.07;;;12.40;99.90;;;;;;10428219;28;20029;-63
2023/03/18 23:06:52;;;;;;;6.65;4.00;;;12.40;99.90;;;;;;10420467;28;20025;-63
2023/03/18 23:11:53;;;;;;;5.68;4.03;;;12.40;99.90;;;;;;10429918;28;20028;-63
2023/03/18 23:16:54;;;;;;;5.38;3.65;;;12.40;99.90;;;;;;10427532;28;20036;-63
2023/03/18 23:21:55;;;;;;;6.47;3.65;;;12.40;99.90;;;;;;10419971;28;20033;-63
2023/03/18 23:26:55;;;;;;;6.10;3.83;;;12.40;99.90;;;;;;10427006;28;20025;-63
2023/03/18 23:31:57;;;;;;;4.80;3.47;;;12.40;99.90;;;;;;10430613;28;20049;-64
2023/03/18 23:36:58;;;;;;;3.97;3.13;;;12.40;99.90;;;;;;10432849;28;20452;-64
2023/03/18 23:41:59;;;;;;;6.13;3.63;;;12.40;99.90;;;;;;10428069;28;20035;-64
2023/03/18 23:47:00;;;;;;;6.25;3.63;;;12.40;99.90;;;;;;10425111;28;20444;-63
2023/03/18 23:52:03;;;;;;;4.47;3.30;;;12.30;99.90;;;;;;10429397;28;20094;-64
2023/03/18 23:57:06;;;;;;;5.15;3.72;;;12.30;99.90;;;;;;10419476;28;20028;-64
